Time;durP1;ratioP1;P1;durP2;ratioP2;P2;SDS_P1;SDS_P2;PMS_P1;PMS_P2;Temp;Humidity;BMP_temperature;BMP_pressure;BME280_temperature;BME280_humidity;BME280_pressure;Samples;Min_cycle;Max_cycle;Signal;HPM_P1;HPM_P2
2022/05/13 00:00:10;;;;;;;;;;;;;;;23.27;60.85;97231.08;616466;230;66842;-70
2022/05/13 00:02:37;;;;;;;;;;;;;;;23.28;61.72;97231.91;616428;230;66557;-70
2022/05/13 00:05:06;;;;;;;;;;;;;;;23.28;60.80;97230.02;616537;230;65405;-77
2022/05/13 00:07:33;;;;;;;;;;;;;;;23.27;61.98;97228.39;616458;230;66756;-77
2022/05/13 00:10:05;;;;;;;;;;;;;;;23.28;63.01;97229.22;616497;230;64616;-77
2022/05/13 00:12:32;;;;;;;;;;;;;;;23.26;61.60;97227.59;616374;230;62984;-77
2022/05/13 00:15:03;;;;;;;;;;;;;;;23.27;61.39;97231.08;616459;230;67059;-77
2022/05/13 00:17:30;;;;;;;;;;;;;;;23.26;61.89;97230.28;616492;230;67256;-77
2022/05/13 00:19:58;;;;;;;;;;;;;;;23.28;62.50;97229.22;616481;230;62975;-77
2022/05/13 00:22:25;;;;;;;;;;;;;;;23.27;61.92;97231.08;616436;230;67078;-77
2022/05/13 00:24:54;;;;;;;;;;;;;;;23.27;60.84;97231.08;616448;230;66903;-77
2022/05/13 00:27:22;;;;;;;;;;;;;;;23.26;61.13;97227.59;616472;230;65497;-77
2022/05/13 00:29:49;;;;;;;;;;;;;;;23.26;61.22;97230.28;616501;230;67048;-77
2022/05/13 00:32:18;;;;;;;;;;;;;;;23.25;61.46;97223.33;616446;230;66917;-70
2022/05/13 00:34:45;;;;;;;;;;;;;;;23.26;62.22;97224.92;616484;230;65403;-70
2022/05/13 00:37:13;;;;;;;;;;;;;;;23.25;62.10;97226.02;616456;230;66737;-70
2022/05/13 00:39:40;;;;;;;;;;;;;;;23.24;61.94;97219.06;616431;230;66814;-70
2022/05/13 00:42:09;;;;;;;;;;;;;;;23.25;61.14;97223.33;616498;230;65699;-70
2022/05/13 00:44:36;;;;;;;;;;;;;;;23.25;61.80;97223.33;616431;230;67559;-77
2022/05/13 00:47:05;;;;;;;;;;;;;;;23.25;61.31;97217.97;616472;230;66960;-77
2022/05/13 00:49:33;;;;;;;;;;;;;;;23.25;60.74;97223.33;616451;230;63006;-77
2022/05/13 00:52:01;;;;;;;;;;;;;;;23.25;60.27;97228.69;616415;230;64814;-77
2022/05/13 00:54:29;;;;;;;;;;;;;;;23.24;60.47;97221.74;616442;230;64745;-77
2022/05/13 00:56:58;;;;;;;;;;;;;;;23.25;61.24;97220.65;616513;230;62997;-77
2022/05/13 00:59:27;;;;;;;;;;;;;;;23.24;61.34;97226.28;616494;230;67101;-70
2022/05/13 01:01:54;;;;;;;;;;;;;;;23.25;59.96;97212.60;616301;230;66922;-70
2022/05/13 01:04:22;;;;;;;;;;;;;;;23.26;62.33;97216.08;610647;232;65320;-70
2022/05/13 01:06:51;;;;;;;;;;;;;;;23.24;61.78;97211.02;610063;230;67065;-70
2022/05/13 01:09:19;;;;;;;;;;;;;;;23.26;60.44;97224.13;610137;232;64946;-70
2022/05/13 01:11:48;;;;;;;;;;;;;;;23.25;60.33;97217.17;610102;232;63009;-70
2022/05/13 01:14:17;;;;;;;;;;;;;;;23.25;61.12;97223.33;610092;232;64777;-70
2022/05/13 01:19:30;;;;;;;;;;;;;;;23.24;61.66;97224.42;610107;232;63707;-70
2022/05/13 01:21:58;;;;;;;;;;;;;;;23.23;60.91;97220.13;610102;232;64844;-70
2022/05/13 01:24:26;;;;;;;;;;;;;;;23.22;61.29;97221.21;610152;232;66653;-70
2022/05/13 01:26:53;;;;;;;;;;;;;;;23.24;61.12;97221.74;610100;232;65121;-70
2022/05/13 01:29:21;;;;;;;;;;;;;;;23.22;60.94;97223.09;610111;232;67081;-70
2022/05/13 01:31:49;;;;;;;;;;;;;;;23.23;61.79;97222.01;610021;230;64688;-70
2022/05/13 01:34:17;;;;;;;;;;;;;;;23.23;60.24;97219.33;610085;232;65879;-70
2022/05/13 01:36:44;;;;;;;;;;;;;;;23.22;62.67;97223.89;610149;232;67081;-70
2022/05/13 01:39:12;;;;;;;;;;;;;;;23.23;62.70;97220.13;610107;232;66903;-70
2022/05/13 01:41:40;;;;;;;;;;;;;;;23.22;60.84;97221.21;610094;232;65115;-70
2022/05/13 01:44:07;;;;;;;;;;;;;;;23.22;61.11;97217.73;610074;232;67123;-70
2022/05/13 01:46:35;;;;;;;;;;;;;;;23.22;61.62;97218.53;610125;232;66904;-70
2022/05/13 01:49:02;;;;;;;;;;;;;;;23.20;60.98;97218.00;610198;232;62873;-70
2022/05/13 01:51:30;;;;;;;;;;;;;;;23.22;61.34;97213.17;610145;232;66478;-70
2022/05/13 01:53:57;;;;;;;;;;;;;;;23.21;60.60;97216.91;610094;232;67017;-70
2022/05/13 01:56:25;;;;;;;;;;;;;;;23.22;61.01;97218.53;610120;232;65098;-70
2022/05/13 01:58:52;;;;;;;;;;;;;;;23.22;62.07;97212.37;610123;232;67314;-70
2022/05/13 02:01:20;;;;;;;;;;;;;;;23.21;60.53;97213.44;610145;232;66858;-70
2022/05/13 02:03:47;;;;;;;;;;;;;;;23.21;61.33;97216.91;612945;230;65357;-70
2022/05/13 02:06:16;;;;;;;;;;;;;;;23.21;60.47;97206.19;610791;230;64856;-70
2022/05/13 02:08:44;;;;;;;;;;;;;;;23.21;60.93;97216.91;612800;230;64730;-70
2022/05/13 02:11:12;;;;;;;;;;;;;;;23.20;62.63;97209.96;616455;230;62908;-70
2022/05/13 02:13:40;;;;;;;;;;;;;;;23.20;61.22;97211.84;616491;230;67075;-70
2022/05/13 02:16:07;;;;;;;;;;;;;;;23.20;61.85;97203.80;616512;230;66909;-70
2022/05/13 02:18:35;;;;;;;;;;;;;;;23.19;61.41;97205.69;616486;230;65383;-70
2022/05/13 02:21:02;;;;;;;;;;;;;;;23.20;61.71;97217.20;616481;230;67183;-70
2022/05/13 02:23:30;;;;;;;;;;;;;;;23.19;61.21;97211.05;616458;230;66891;-70
2022/05/13 02:25:59;;;;;;;;;;;;;;;23.19;60.94;97215.59;616447;230;65107;-70
2022/05/13 02:28:27;;;;;;;;;;;;;;;23.19;61.64;97213.73;616520;230;67156;-70
2022/05/13 02:30:55;;;;;;;;;;;;;;;23.19;61.66;97212.91;616478;230;65016;-70
2022/05/13 02:33:22;;;;;;;;;;;;;;;23.19;61.19;97221.77;616467;230;63034;-70
2022/05/13 02:35:50;;;;;;;;;;;;;;;23.18;61.44;97220.16;616475;230;64851;-70
2022/05/13 02:38:17;;;;;;;;;;;;;;;23.18;60.68;97220.16;616467;230;64560;-70
2022/05/13 02:43:31;;;;;;;;;;;;;;;23.18;60.93;97216.68;616537;230;67074;-70
2022/05/13 02:45:59;;;;;;;;;;;;;;;23.18;60.22;97216.68;616427;230;65366;-77
2022/05/13 02:48:26;;;;;;;;;;;;;;;23.17;61.29;97207.05;616477;230;63046;-77
2022/05/13 02:50:54;;;;;;;;;;;;;;;23.17;62.12;97209.73;616467;230;67089;-77
2022/05/13 02:53:22;;;;;;;;;;;;;;;23.17;61.81;97213.20;616475;230;65053;-77
2022/05/13 02:55:50;;;;;;;;;;;;;;;23.17;61.14;97212.41;616516;230;63015;-77
2022/05/13 02:58:20;;;;;;;;;;;;;;;23.16;61.96;97214.30;616479;230;67029;-77
2022/05/13 03:00:48;;;;;;;;;;;;;;;23.16;61.72;97213.47;616440;230;67096;-77
2022/05/13 03:03:15;;;;;;;;;;;;;;;23.16;61.53;97224.20;613827;230;65123;-77
2022/05/13 03:05:45;;;;;;;;;;;;;;;23.15;61.16;97228.77;610585;232;66773;-77
2022/05/13 03:08:13;;;;;;;;;;;;;;;23.16;62.33;97229.55;610154;232;64676;-77
2022/05/13 03:10:40;;;;;;;;;;;;;;;23.15;61.24;97228.77;610096;232;65346;-77
2022/05/13 03:13:09;;;;;;;;;;;;;;;23.15;61.59;97226.08;610098;232;65991;-77
2022/05/13 03:15:37;;;;;;;;;;;;;;;23.16;62.48;97232.23;610111;232;66882;-77
2022/05/13 03:18:05;;;;;;;;;;;;;;;23.15;62.25;97228.77;610061;230;65363;-77
2022/05/13 03:20:33;;;;;;;;;;;;;;;23.15;61.40;97227.97;610160;232;64840;-77
2022/05/13 03:23:00;;;;;;;;;;;;;;;23.14;62.09;97237.89;610086;232;64709;-77
2022/05/13 03:25:28;;;;;;;;;;;;;;;23.14;61.19;97240.58;610102;232;62947;-77
2022/05/13 03:27:55;;;;;;;;;;;;;;;23.14;61.93;97237.89;610124;232;67141;-77
2022/05/13 03:30:24;;;;;;;;;;;;;;;23.15;61.51;97239.48;610091;232;66874;-77
2022/05/13 03:32:52;;;;;;;;;;;;;;;23.14;62.68;97235.22;610182;232;62966;-77
2022/05/13 03:35:20;;;;;;;;;;;;;;;23.14;62.10;97237.89;610077;232;67006;-77
2022/05/13 03:37:48;;;;;;;;;;;;;;;23.13;63.03;97236.27;610105;232;66738;-77
2022/05/13 03:40:17;;;;;;;;;;;;;;;23.13;62.03;97238.95;610102;232;63019;-77
2022/05/13 03:42:45;;;;;;;;;;;;;;;23.14;61.65;97242.47;610103;232;67026;-77
2022/05/13 03:45:14;;;;;;;;;;;;;;;23.13;60.74;97240.84;610096;230;67026;-77
2022/05/13 03:47:41;;;;;;;;;;;;;;;23.13;61.19;97244.31;610159;230;63150;-77
2022/05/13 03:50:10;;;;;;;;;;;;;;;23.13;60.95;97246.20;610137;232;64843;-77
2022/05/13 03:52:37;;;;;;;;;;;;;;;23.13;63.42;97246.20;610118;230;66461;-77
2022/05/13 03:55:05;;;;;;;;;;;;;;;23.13;62.61;97240.84;610161;232;65104;-77
2022/05/13 03:57:33;;;;;;;;;;;;;;;23.13;61.23;97251.56;610076;232;66744;-77
2022/05/13 04:00:00;;;;;;;;;;;;;;;23.12;61.76;97250.77;610158;232;66881;-77
2022/05/13 04:02:30;;;;;;;;;;;;;;;23.12;60.36;97256.13;610166;229;42715;-70
2022/05/13 04:10:28;;;;;;;;;;;;;;;23.12;60.94;97258.02;610153;232;65463;-70
2022/05/13 04:18:27;;;;;;;;;;;;;;;23.10;62.38;97265.53;610118;230;65390;-70
2022/05/13 04:20:56;;;;;;;;;;;;;;;23.10;61.67;97260.17;610113;232;66851;-70
2022/05/13 04:23:23;;;;;;;;;;;;;;;23.09;62.08;97254.02;610093;232;67006;-70
2022/05/13 04:25:53;;;;;;;;;;;;;;;23.10;61.19;97262.84;610060;230;65421;-70
2022/05/13 04:28:20;;;;;;;;;;;;;;;23.10;61.49;97260.97;610052;232;67269;-70
2022/05/13 04:30:48;;;;;;;;;;;;;;;23.09;61.15;97255.90;610084;232;66819;-70
2022/05/13 04:33:15;;;;;;;;;;;;;;;23.09;61.73;97263.94;610053;232;65404;-70
2022/05/13 04:35:43;;;;;;;;;;;;;;;23.10;62.12;97262.84;610062;232;66987;-70
2022/05/13 04:38:10;;;;;;;;;;;;;;;23.09;62.27;97264.73;610110;232;66973;-70
2022/05/13 04:40:38;;;;;;;;;;;;;;;23.09;61.43;97261.26;610074;232;65096;-70
2022/05/13 04:43:06;;;;;;;;;;;;;;;23.09;61.74;97263.94;610122;232;65679;-70
2022/05/13 04:45:34;;;;;;;;;;;;;;;23.09;62.28;97262.05;610150;232;64860;-70
2022/05/13 04:48:16;;;;;;;;;;;;;;;23.09;62.11;97262.05;610101;232;65464;-70
2022/05/13 04:50:48;;;;;;;;;;;;;;;23.09;61.55;97261.26;609934;232;67106;-70
2022/05/13 04:53:17;;;;;;;;;;;;;;;23.08;62.95;97260.47;610128;232;64807;-70
2022/05/13 04:55:44;;;;;;;;;;;;;;;23.09;61.32;97261.26;610072;232;63034;-70
2022/05/13 04:58:12;;;;;;;;;;;;;;;23.09;61.63;97263.94;610050;232;64800;-70
2022/05/13 05:00:39;;;;;;;;;;;;;;;23.09;61.74;97258.58;610051;230;64727;-70
2022/05/13 05:03:08;;;;;;;;;;;;;;;23.08;62.21;97262.32;611330;231;65002;-70
2022/05/13 05:05:36;;;;;;;;;;;;;;;23.08;61.71;97263.14;612720;231;67094;-71
2022/05/13 05:08:03;;;;;;;;;;;;;;;23.08;62.76;97267.68;612768;231;66829;-70
2022/05/13 05:10:32;;;;;;;;;;;;;;;23.07;61.50;97266.88;612698;231;65082;-70
2022/05/13 05:12:59;;;;;;;;;;;;;;;23.07;61.97;97271.45;612794;231;67038;-70
2022/05/13 05:15:27;;;;;;;;;;;;;;;23.08;62.94;97271.19;612694;231;65017;-71
2022/05/13 05:17:55;;;;;;;;;;;;;;;23.08;62.42;97273.04;612750;231;65205;-70
2022/05/13 05:20:23;;;;;;;;;;;;;;;23.07;63.10;97272.25;612553;231;67061;-71
2022/05/13 05:22:50;;;;;;;;;;;;;;;23.07;62.32;97269.56;612290;230;66847;-70
2022/05/13 05:25:20;;;;;;;;;;;;;;;23.07;62.37;97274.92;611165;232;65128;-70
2022/05/13 05:27:48;;;;;;;;;;;;;;;23.08;62.26;97270.36;611002;232;67249;-71
2022/05/13 05:30:16;;;;;;;;;;;;;;;23.06;61.86;97277.91;611704;232;66887;-70
2022/05/13 05:32:44;;;;;;;;;;;;;;;23.05;61.81;97274.39;611937;232;65559;-70
2022/05/13 05:35:13;;;;;;;;;;;;;;;23.08;63.38;97275.72;611809;232;66878;-70
2022/05/13 05:37:40;;;;;;;;;;;;;;;23.06;62.71;97278.70;611655;232;64946;-70
2022/05/13 05:40:09;;;;;;;;;;;;;;;23.06;62.09;97275.22;611177;232;65086;-70
2022/05/13 05:42:40;;;;;;;;;;;;;;;23.05;63.60;97271.72;611876;230;66080;-70
2022/05/13 05:45:09;;;;;;;;;;;;;;;23.06;63.47;97267.98;611879;232;66901;-70
2022/05/13 05:47:37;;;;;;;;;;;;;;;23.06;63.25;97267.98;611842;232;62972;-70
2022/05/13 05:50:06;;;;;;;;;;;;;;;23.05;62.50;97266.36;611749;232;64816;-70
2022/05/13 05:52:34;;;;;;;;;;;;;;;23.05;62.31;97271.72;611799;232;67321;-70
2022/05/13 05:58:03;;;;;;;;;;;;;;;23.04;62.66;97259.41;611876;232;64943;-73
2022/05/13 06:00:33;;;;;;;;;;;;;;;23.04;63.04;97257.52;611892;232;64788;-73
2022/05/13 06:03:00;;;;;;;;;;;;;;;23.05;63.19;97258.31;613737;230;65310;-70
2022/05/13 06:05:28;;;;;;;;;;;;;;;23.04;63.50;97260.20;615810;230;67191;-70
2022/05/13 06:07:57;;;;;;;;;;;;;;;23.04;63.28;97260.20;615303;230;67041;-70
2022/05/13 06:10:25;;;;;;;;;;;;;;;23.04;64.71;97262.08;615245;230;63318;-69
2022/05/13 06:12:53;;;;;;;;;;;;;;;23.04;65.00;97257.52;614354;231;67086;-69
2022/05/13 06:15:21;;;;;;;;;;;;;;;23.04;63.88;97259.41;614382;231;66885;-72
2022/05/13 06:17:50;;;;;;;;;;;;;;;23.06;64.90;97253.78;614260;231;65356;-70
2022/05/13 06:20:19;;;;;;;;;;;;;;;23.06;63.86;97251.09;614574;231;65055;-71
2022/05/13 06:22:49;;;;;;;;;;;;;;;23.06;64.00;97251.89;614442;231;44390;-71
2022/05/13 06:25:19;;;;;;;;;;;;;;;23.07;64.03;97250.01;614449;231;65375;-71
2022/05/13 06:27:47;;;;;;;;;;;;;;;23.08;64.05;97241.70;614455;231;67208;-71
2022/05/13 06:30:19;;;;;;;;;;;;;;;23.07;63.48;97241.97;614451;231;65164;-72
2022/05/13 06:32:46;;;;;;;;;;;;;;;23.08;63.92;97235.52;614518;231;63905;-70
2022/05/13 06:35:14;;;;;;;;;;;;;;;23.10;64.42;97238.72;614483;231;64855;-71
2022/05/13 06:37:41;;;;;;;;;;;;;;;23.09;64.10;97232.56;614429;231;64752;-70
2022/05/13 06:40:09;;;;;;;;;;;;;;;23.09;63.74;97232.56;614467;231;62764;-71
2022/05/13 06:42:37;;;;;;;;;;;;;;;23.11;64.06;97234.95;614510;231;64883;-69
2022/05/13 06:45:06;;;;;;;;;;;;;;;23.11;64.06;97233.09;614492;231;67382;-70
2022/05/13 06:47:34;;;;;;;;;;;;;;;23.11;64.19;97227.73;610118;230;68850;-76
2022/05/13 06:50:03;;;;;;;;;;;;;;;23.12;64.53;97226.64;614448;231;64612;-69
2022/05/13 06:52:30;;;;;;;;;;;;;;;23.13;63.09;97230.91;614430;231;67112;-69
2022/05/13 06:54:58;;;;;;;;;;;;;;;23.15;65.27;97220.72;614487;231;65309;-68
2022/05/13 06:57:25;;;;;;;;;;;;;;;23.16;65.75;97226.87;614408;231;67261;-70
2022/05/13 06:59:53;;;;;;;;;;;;;;;23.16;65.02;97225.02;614433;231;66868;-69
2022/05/13 07:02:22;;;;;;;;;;;;;;;23.16;64.21;97224.20;614553;230;66271;-69
2022/05/13 07:04:50;;;;;;;;;;;;;;;23.15;64.78;97212.67;615032;230;67247;-69
2022/05/13 07:07:17;;;;;;;;;;;;;;;23.16;65.02;97216.98;615074;230;64960;-69
2022/05/13 07:09:45;;;;;;;;;;;;;;;23.17;64.48;97210.52;615101;230;63917;-69
2022/05/13 07:12:12;;;;;;;;;;;;;;;23.16;64.69;97214.30;615174;230;64832;-68
2022/05/13 07:14:40;;;;;;;;;;;;;;;23.18;63.69;97206.75;615167;230;64796;-70
2022/05/13 07:17:07;;;;;;;;;;;;;;;23.19;64.66;97210.23;615108;230;62827;-70
2022/05/13 07:19:35;;;;;;;;;;;;;;;23.18;64.53;97206.75;615060;230;64879;-70
2022/05/13 07:22:02;;;;;;;;;;;;;;;23.19;64.95;97208.38;615169;230;65770;-70
2022/05/13 07:24:30;;;;;;;;;;;;;;;23.19;65.05;97205.69;615140;230;64941;-69
2022/05/13 07:26:58;;;;;;;;;;;;;;;23.21;65.86;97202.71;615142;230;67248;-70
2022/05/13 07:29:25;;;;;;;;;;;;;;;23.21;64.86;97200.83;615157;230;66917;-70
2022/05/13 07:31:53;;;;;;;;;;;;;;;23.22;65.89;97196.28;615104;230;65122;-70
2022/05/13 07:34:21;;;;;;;;;;;;;;;23.22;64.07;97190.92;615111;230;67185;-71
2022/05/13 07:36:53;;;;;;;;;;;;;;;23.22;66.66;97186.36;615165;230;66696;-71
2022/05/13 07:42:04;;;;;;;;;;;;;;;23.23;66.26;97185.27;615148;230;67051;-70
2022/05/13 07:44:32;;;;;;;;;;;;;;;23.25;65.08;97180.43;615082;230;67211;-70
2022/05/13 07:47:00;;;;;;;;;;;;;;;23.25;64.91;97185.00;615064;230;65185;-70
2022/05/13 07:49:27;;;;;;;;;;;;;;;23.26;65.34;97178.55;615130;230;67092;-71
2022/05/13 07:51:55;;;;;;;;;;;;;;;23.26;65.90;97176.66;615164;230;66934;-70
2022/05/13 07:54:22;;;;;;;;;;;;;;;23.27;65.06;97177.45;615126;230;65260;-71
2022/05/13 07:56:50;;;;;;;;;;;;;;;23.29;66.78;97171.81;615087;230;67033;-71
2022/05/13 07:59:17;;;;;;;;;;;;;;;23.29;66.13;97174.50;615094;230;66675;-73
2022/05/13 08:01:45;;;;;;;;;;;;;;;23.31;66.59;97166.98;615099;230;65345;-71
2022/05/13 08:04:13;;;;;;;;;;;;;;;23.32;63.55;97168.56;615155;230;66573;-70
2022/05/13 08:06:42;;;;;;;;;;;;;;;23.30;62.56;97166.19;615137;230;66671;-71
2022/05/13 08:09:09;;;;;;;;;;;;;;;23.34;63.31;97169.09;615047;230;63287;-71
2022/05/13 08:11:37;;;;;;;;;;;;;;;23.35;64.03;97170.68;615145;230;67019;-71
2022/05/13 08:14:05;;;;;;;;;;;;;;;23.36;63.62;97165.05;615152;230;66627;-71
2022/05/13 08:16:34;;;;;;;;;;;;;;;23.38;64.33;97164.75;615122;230;65589;-74
2022/05/13 08:19:02;;;;;;;;;;;;;;;23.36;63.26;97166.94;615156;230;66748;-69
2022/05/13 08:21:29;;;;;;;;;;;;;;;23.39;64.77;97169.05;615131;230;64412;-71
2022/05/13 08:23:58;;;;;;;;;;;;;;;23.40;64.64;97165.27;615108;230;62992;-70
2022/05/13 08:26:25;;;;;;;;;;;;;;;23.40;63.70;97166.06;615105;230;64934;-71
2022/05/13 08:28:53;;;;;;;;;;;;;;;23.41;64.99;97159.64;615102;230;64723;-70
2022/05/13 08:31:20;;;;;;;;;;;;;;;23.43;63.81;97164.70;615163;230;63032;-70
2022/05/13 08:33:48;;;;;;;;;;;;;;;23.44;65.78;97148.34;615103;230;64832;-70
2022/05/13 08:36:16;;;;;;;;;;;;;;;23.44;64.51;97156.39;615106;230;64828;-70
2022/05/13 08:38:45;;;;;;;;;;;;;;;23.46;65.09;97159.59;615088;230;64118;-70
2022/05/13 08:41:17;;;;;;;;;;;;;;;23.47;64.91;97153.14;615084;230;66907;-72
2022/05/13 08:43:49;;;;;;;;;;;;;;;23.47;66.50;97155.02;615169;230;66856;-71
2022/05/13 08:46:27;;;;;;;;;;;;;;;23.48;66.42;97151.25;615152;230;62555;-72
2022/05/13 08:49:02;;;;;;;;;;;;;;;23.48;66.27;97143.20;614927;230;67146;-71
2022/05/13 08:51:34;;;;;;;;;;;;;;;23.49;66.34;97137.56;615088;230;66774;-72
2022/05/13 08:54:15;;;;;;;;;;;;;;;23.51;66.25;97150.68;613405;230;63025;-71
2022/05/13 08:56:45;;;;;;;;;;;;;;;23.52;64.99;97152.30;615172;230;67338;-72
2022/05/13 08:59:14;;;;;;;;;;;;;;;23.53;65.94;97148.52;615061;230;67423;-71
2022/05/13 09:01:43;;;;;;;;;;;;;;;23.55;66.69;97148.25;615205;230;65160;-68
2022/05/13 09:04:12;;;;;;;;;;;;;;;23.54;66.42;97147.42;610792;230;67112;-69
2022/05/13 09:06:41;;;;;;;;;;;;;;;23.54;65.87;97134.02;610630;232;64472;-70
2022/05/13 09:09:10;;;;;;;;;;;;;;;23.55;65.06;97129.47;610592;228;65148;-72
2022/05/13 09:11:39;;;;;;;;;;;;;;;23.55;66.38;97127.58;610590;232;67337;-68
2022/05/13 09:14:08;;;;;;;;;;;;;;;23.57;66.22;97133.47;610481;232;64748;-70
2022/05/13 09:16:43;;;;;;;;;;;;;;;23.57;66.31;97122.73;610670;232;62920;-70
2022/05/13 09:19:14;;;;;;;;;;;;;;;23.60;66.02;97126.70;610578;232;66846;-70
2022/05/13 09:21:43;;;;;;;;;;;;;;;23.58;65.97;97124.33;609941;232;66901;-71
2022/05/13 09:24:13;;;;;;;;;;;;;;;23.59;66.01;97120.55;610659;232;44208;-70
2022/05/13 09:26:42;;;;;;;;;;;;;;;23.60;65.88;97122.16;611488;229;65001;-71
2022/05/13 09:29:13;;;;;;;;;;;;;;;23.61;65.57;97112.23;611896;228;64873;-71
2022/05/13 09:31:44;;;;;;;;;;;;;;;23.63;65.89;97110.86;611138;232;65344;-72
2022/05/13 09:34:34;;;;;;;;;;;;;;;23.64;65.11;97112.45;611143;232;67011;-71
2022/05/13 09:37:06;;;;;;;;;;;;;;;23.64;66.10;97108.97;611195;232;64888;-70
2022/05/13 09:39:34;;;;;;;;;;;;;;;23.64;64.97;97098.23;611213;232;65555;-70
2022/05/13 09:42:10;;;;;;;;;;;;;;;23.65;65.55;97097.97;611148;232;67225;-69
2022/05/13 09:44:37;;;;;;;;;;;;;;;23.66;65.59;97104.13;601722;233;64625;-70
2022/05/13 09:47:16;;;;;;;;;;;;;;;23.68;64.76;97092.02;607946;233;63010;-70
2022/05/13 09:49:47;;;;;;;;;;;;;;;23.70;63.91;97095.20;607721;232;67038;-72
2022/05/13 09:52:19;;;;;;;;;;;;;;;23.72;62.68;97096.84;608424;233;67066;-72
2022/05/13 09:54:48;;;;;;;;;;;;;;;23.73;64.84;97088.49;608128;233;65074;-71
2022/05/13 09:57:17;;;;;;;;;;;;;;;23.73;62.67;97090.38;608292;233;67043;-71
2022/05/13 09:59:46;;;;;;;;;;;;;;;23.73;65.31;97077.76;608249;233;67776;-69
2022/05/13 10:02:21;;;;;;;;;;;;;;;23.74;64.68;97084.74;607969;232;65470;-72
2022/05/13 10:04:53;;;;;;;;;;;;;;;23.73;64.73;97075.08;608752;232;67041;-72
2022/05/13 10:07:22;;;;;;;;;;;;;;;23.73;64.51;97079.65;606384;230;66612;-72
2022/05/13 10:15:25;;;;;;;;;;;;;;;23.74;63.90;97075.90;607973;230;67215;-71
2022/05/13 10:17:56;;;;;;;;;;;;;;;23.73;63.40;97076.97;612109;230;63218;-71
2022/05/13 10:20:28;;;;;;;;;;;;;;;23.73;63.37;97058.19;611644;232;67239;-73
2022/05/13 10:23:03;;;;;;;;;;;;;;;23.73;62.91;97066.23;611580;232;69057;-72
2022/05/13 10:25:32;;;;;;;;;;;;;;;23.73;63.22;97061.66;611737;232;65177;-73
2022/05/13 10:28:00;;;;;;;;;;;;;;;23.74;63.27;97059.80;611791;232;64833;-75
2022/05/13 10:30:39;;;;;;;;;;;;;;;23.74;63.49;97057.91;609233;230;64842;-71
2022/05/13 10:33:24;;;;;;;;;;;;;;;23.74;63.20;97051.75;609095;233;62980;-69
2022/05/13 10:35:57;;;;;;;;;;;;;;;23.75;63.44;97053.34;609094;233;66782;-70
2022/05/13 10:38:38;;;;;;;;;;;;;;;23.77;60.29;97048.48;608988;233;66914;-70
2022/05/13 10:41:10;;;;;;;;;;;;;;;23.77;64.10;97045.80;609003;232;47579;-79
2022/05/13 10:43:39;;;;;;;;;;;;;;;23.76;63.95;97044.19;607380;233;65180;-79
2022/05/13 10:46:24;;;;;;;;;;;;;;;23.77;63.52;97046.59;608968;232;66914;-77
2022/05/13 10:48:53;;;;;;;;;;;;;;;23.78;62.63;97039.34;608973;233;65386;-73
2022/05/13 10:51:22;;;;;;;;;;;;;;;23.78;62.83;97034.77;609103;233;67009;-77
2022/05/13 10:53:51;;;;;;;;;;;;;;;23.79;63.52;97035.56;609074;233;64762;-77
2022/05/13 10:56:29;;;;;;;;;;;;;;;23.80;61.99;97034.49;608867;233;63025;-78
2022/05/13 10:59:01;;;;;;;;;;;;;;;23.79;63.50;97022.97;608886;233;67045;-79
2022/05/13 11:01:31;;;;;;;;;;;;;;;23.79;63.12;97024.83;608962;233;64851;-78
2022/05/13 11:04:00;;;;;;;;;;;;;;;23.80;62.47;97019.19;610811;232;65398;-76
2022/05/13 11:06:46;;;;;;;;;;;;;;;23.81;63.30;97020.77;610956;232;67818;-75
2022/05/13 11:09:31;;;;;;;;;;;;;;;23.81;63.62;97019.97;610836;232;66908;-74
2022/05/13 11:12:15;;;;;;;;;;;;;;;23.80;63.55;97019.19;610826;232;65313;-76
2022/05/13 11:14:44;;;;;;;;;;;;;;;23.82;62.75;97013.54;610212;232;67058;-76
2022/05/13 11:17:25;;;;;;;;;;;;;;;23.83;62.79;97015.13;610393;232;66873;-77
2022/05/13 11:19:54;;;;;;;;;;;;;;;23.81;61.60;97001.98;610049;231;66372;-77
2022/05/13 11:22:34;;;;;;;;;;;;;;;23.81;61.05;97007.35;613938;230;67024;-76
2022/05/13 11:28:12;;;;;;;;;;;;;;;23.83;61.79;96997.13;616310;230;63281;-76
2022/05/13 11:30:44;;;;;;;;;;;;;;;23.83;62.52;96993.66;616443;230;67195;-74
2022/05/13 11:33:14;;;;;;;;;;;;;;;23.82;61.47;96990.18;616364;230;67287;-74
2022/05/13 11:35:43;;;;;;;;;;;;;;;23.85;60.73;96989.59;616033;229;66246;-81
2022/05/13 11:38:20;;;;;;;;;;;;;;;23.86;62.28;96987.70;616389;230;47909;-75
2022/05/13 11:40:49;;;;;;;;;;;;;;;23.85;61.28;96988.80;616426;230;66851;-77
2022/05/13 11:43:25;;;;;;;;;;;;;;;23.86;62.22;96979.66;615821;230;65671;-75
2022/05/13 11:46:10;;;;;;;;;;;;;;;23.85;61.19;96978.06;616210;230;67067;-76
2022/05/13 11:48:39;;;;;;;;;;;;;;;23.85;61.77;96978.06;616404;230;66888;-76
2022/05/13 11:51:08;;;;;;;;;;;;;;;23.85;61.61;96975.39;616299;230;63233;-77
2022/05/13 11:53:37;;;;;;;;;;;;;;;23.85;61.96;96972.70;616261;230;64600;-76
2022/05/13 11:56:15;;;;;;;;;;;;;;;23.85;61.13;96964.66;615626;229;64994;-75
2022/05/13 11:58:47;;;;;;;;;;;;;;;23.85;61.43;96968.13;616362;230;63024;-76
2022/05/13 12:01:16;;;;;;;;;;;;;;;23.85;60.73;96957.39;616432;230;67319;-78
2022/05/13 12:03:44;;;;;;;;;;;;;;;23.85;59.31;96964.66;615507;230;66859;-78
2022/05/13 12:06:12;;;;;;;;;;;;;;;23.87;59.60;96962.45;616410;230;65100;-75
2022/05/13 12:08:44;;;;;;;;;;;;;;;23.86;60.05;96952.81;616437;230;64611;-76
2022/05/13 12:11:28;;;;;;;;;;;;;;;23.87;59.64;96952.54;615476;230;66888;-77
2022/05/13 12:14:06;;;;;;;;;;;;;;;23.86;58.65;96942.88;616337;230;62977;-77
2022/05/13 12:16:36;;;;;;;;;;;;;;;23.86;59.15;96937.50;616311;230;64589;-75
2022/05/13 12:19:09;;;;;;;;;;;;;;;23.87;59.40;96940.98;616384;230;64520;-76
2022/05/13 12:21:43;;;;;;;;;;;;;;;23.86;59.25;96931.34;616386;230;65077;-79
2022/05/13 12:24:13;;;;;;;;;;;;;;;23.88;58.67;96929.17;616312;230;67017;-77
2022/05/13 12:26:56;;;;;;;;;;;;;;;23.88;59.51;96929.17;616368;230;65721;-76
2022/05/13 12:29:34;;;;;;;;;;;;;;;23.87;59.43;96923.02;616362;230;62743;-80
2022/05/13 12:32:03;;;;;;;;;;;;;;;23.87;60.79;96917.65;613097;229;66781;-78
2022/05/13 12:37:38;;;;;;;;;;;;;;;23.88;60.99;96908.50;611736;232;65396;-79
2022/05/13 12:40:06;;;;;;;;;;;;;;;23.88;61.23;96907.70;611558;231;64569;-78
2022/05/13 12:42:38;;;;;;;;;;;;;;;23.89;60.51;96910.08;611705;232;67541;-77
2022/05/13 12:45:07;;;;;;;;;;;;;;;23.90;60.79;96902.85;611696;232;65346;-77
2022/05/13 12:47:53;;;;;;;;;;;;;;;23.89;61.80;96901.23;611687;232;64031;-80
2022/05/13 12:50:22;;;;;;;;;;;;;;;23.89;61.13;96896.66;611804;232;67221;-78
2022/05/13 12:52:49;;;;;;;;;;;;;;;23.91;61.36;96896.38;611553;232;65434;-78
2022/05/13 12:55:18;;;;;;;;;;;;;;;;;;611620;232;64679;-76
2022/05/13 12:57:49;;;;;;;;;;;;;;;23.92;59.90;96896.08;611844;232;64849;-77
2022/05/13 13:00:19;;;;;;;;;;;;;;;23.93;60.81;96886.95;611683;232;65155;-78
2022/05/13 13:02:48;;;;;;;;;;;;;;;23.94;59.08;96885.06;611563;229;64764;-77
2022/05/13 13:05:23;;;;;;;;;;;;;;;23.96;60.58;96882.09;610511;232;66821;-77
2022/05/13 13:07:52;;;;;;;;;;;;;;;23.97;59.32;96883.68;611463;232;65371;-78
2022/05/13 13:10:23;;;;;;;;;;;;;;;23.97;61.24;96872.94;611735;232;66767;-79
2022/05/13 13:13:01;;;;;;;;;;;;;;;23.97;61.09;96879.09;611779;232;66776;-82
2022/05/13 13:15:30;;;;;;;;;;;;;;;23.96;61.95;96871.36;611559;232;65188;-75
2022/05/13 13:17:59;;;;;;;;;;;;;;;23.97;59.95;96871.05;611619;229;67324;-77
2022/05/13 13:20:28;;;;;;;;;;;;;;;23.98;61.79;96869.98;611813;232;65718;-78
2022/05/13 13:23:03;;;;;;;;;;;;;;;23.98;62.07;96859.23;611729;232;65321;-75
2022/05/13 13:25:35;;;;;;;;;;;;;;;24.01;60.12;96857.83;611773;231;64908;-76
2022/05/13 13:28:04;;;;;;;;;;;;;;;24.00;60.31;96856.24;611775;231;64643;-76
2022/05/13 13:30:32;;;;;;;;;;;;;;;24.01;61.29;96849.77;611671;232;65007;-76
2022/05/13 13:33:00;;;;;;;;;;;;;;;24.00;60.52;96846.30;611750;232;67049;-78